sensor_id;sensor_type;location;lat;lon;timestamp;pressure;altitude;pressure_sealevel;temperature;humidity
73240;BME280;61452;40.054;4.110;2023-04-09T00:01:19;102042.03;;;17.09;54.47
73240;BME280;61452;40.054;4.110;2023-04-09T00:06:22;102050.06;;;17.07;54.75
73240;BME280;61452;40.054;4.110;2023-04-09T00:11:24;102050.22;;;17.04;54.97
73240;BME280;61452;40.054;4.110;2023-04-09T00:16:26;102045.75;;;17.05;54.37
73240;BME280;61452;40.054;4.110;2023-04-09T00:21:28;102042.09;;;17.07;54.37
73240;BME280;61452;40.054;4.110;2023-04-09T00:26:30;102034.06;;;17.09;54.36
73240;BME280;61452;40.054;4.110;2023-04-09T00:31:32;102039.38;;;17.09;54.58
73240;BME280;61452;40.054;4.110;2023-04-09T00:36:35;102034.31;;;17.04;54.81
73240;BME280;61452;40.054;4.110;2023-04-09T00:41:37;102036.03;;;17.05;54.22
73240;BME280;61452;40.054;4.110;2023-04-09T00:46:39;102042.97;;;17.08;54.11
73240;BME280;61452;40.054;4.110;2023-04-09T00:51:43;102036.72;;;17.09;53.98
73240;BME280;61452;40.054;4.110;2023-04-09T00:56:46;102033.38;;;17.05;54.73
73240;BME280;61452;40.054;4.110;2023-04-09T01:01:48;102033.56;;;17.02;55.12
73240;BME280;61452;40.054;4.110;2023-04-09T01:06:58;102036.97;;;17.04;54.17
73240;BME280;61452;40.054;4.110;2023-04-09T01:17:49;102041.25;;;17.07;54.03
73240;BME280;61452;40.054;4.110;2023-04-09T01:23:06;102047.56;;;17.04;54.89
73240;BME280;61452;40.054;4.110;2023-04-09T01:28:16;102052.19;;;17.01;54.86
73240;BME280;61452;40.054;4.110;2023-04-09T01:33:19;102050.41;;;17.01;54.80
73240;BME280;61452;40.054;4.110;2023-04-09T01:38:23;102051.19;;;17.03;54.31
73240;BME280;61452;40.054;4.110;2023-04-09T01:43:27;102036.22;;;17.02;54.11
73240;BME280;61452;40.054;4.110;2023-04-09T01:48:32;102045.09;;;17.01;54.91
73240;BME280;61452;40.054;4.110;2023-04-09T01:53:35;102040.81;;;16.98;54.91
73240;BME280;61452;40.054;4.110;2023-04-09T01:58:37;102038.06;;;17.00;54.40
73240;BME280;61452;40.054;4.110;2023-04-09T02:03:53;102039.88;;;16.99;54.37
73240;BME280;61452;40.054;4.110;2023-04-09T02:08:59;102044.25;;;17.01;54.05
73240;BME280;61452;40.054;4.110;2023-04-09T02:14:03;102041.66;;;16.99;54.96
73240;BME280;61452;40.054;4.110;2023-04-09T02:19:05;102038.34;;;16.95;55.01
73240;BME280;61452;40.054;4.110;2023-04-09T02:24:07;102017.63;;;16.86;54.85
73240;BME280;61452;40.054;4.110;2023-04-09T02:29:09;102037.56;;;16.93;54.72
73240;BME280;61452;40.054;4.110;2023-04-09T02:34:12;102035.69;;;16.95;54.75
73240;BME280;61452;40.054;4.110;2023-04-09T02:39:14;102039.00;;;16.99;54.04
73240;BME280;61452;40.054;4.110;2023-04-09T02:44:16;102048.88;;;16.97;54.46
73240;BME280;61452;40.054;4.110;2023-04-09T02:49:18;102050.72;;;16.95;54.96
73240;BME280;61452;40.054;4.110;2023-04-09T02:54:20;102047.31;;;16.93;55.12
73240;BME280;61452;40.054;4.110;2023-04-09T02:59:23;102046.28;;;16.95;53.71
73240;BME280;61452;40.054;4.110;2023-04-09T03:04:25;102038.34;;;16.95;54.39
73240;BME280;61452;40.054;4.110;2023-04-09T03:09:27;102033.78;;;16.97;54.56
73240;BME280;61452;40.054;4.110;2023-04-09T03:14:31;102027.81;;;16.94;54.70
73240;BME280;61452;40.054;4.110;2023-04-09T03:19:36;102033.31;;;16.91;54.83
73240;BME280;61452;40.054;4.110;2023-04-09T03:24:38;102040.28;;;16.92;53.67
73240;BME280;61452;40.054;4.110;2023-04-09T03:29:40;102041.06;;;16.94;54.42
73240;BME280;61452;40.054;4.110;2023-04-09T03:34:43;102032.66;;;16.86;54.36
73240;BME280;61452;40.054;4.110;2023-04-09T03:39:46;102049.09;;;16.92;54.51
73240;BME280;61452;40.054;4.110;2023-04-09T03:44:49;102048.50;;;16.87;54.52
73240;BME280;61452;40.054;4.110;2023-04-09T03:50:01;102060.81;;;16.88;54.31
73240;BME280;61452;40.054;4.110;2023-04-09T03:55:17;102065.94;;;16.91;53.86
73240;BME280;61452;40.054;4.110;2023-04-09T04:00:20;102068.50;;;16.93;54.09
73240;BME280;61452;40.054;4.110;2023-04-09T04:06:01;102066.19;;;16.87;54.41
73240;BME280;61452;40.054;4.110;2023-04-09T04:11:13;102066.44;;;16.82;54.37
73240;BME280;61452;40.054;4.110;2023-04-09T04:16:15;102071.50;;;16.87;54.23
73240;BME280;61452;40.054;4.110;2023-04-09T04:21:17;102077.66;;;16.87;54.07
73240;BME280;61452;40.054;4.110;2023-04-09T04:26:28;102068.75;;;16.88;54.25
73240;BME280;61452;40.054;4.110;2023-04-09T04:31:31;102074.22;;;16.85;54.76
73240;BME280;61452;40.054;4.110;2023-04-09T04:36:35;102074.41;;;16.82;54.90
73240;BME280;61452;40.054;4.110;2023-04-09T04:41:38;102073.38;;;16.85;54.47
73240;BME280;61452;40.054;4.110;2023-04-09T04:46:45;102079.44;;;16.87;54.33
73240;BME280;61452;40.054;4.110;2023-04-09T04:51:47;102071.56;;;16.85;54.48
73240;BME280;61452;40.054;4.110;2023-04-09T04:56:50;102084.06;;;16.83;54.54
73240;BME280;61452;40.054;4.110;2023-04-09T05:02:08;102077.13;;;16.81;54.97
73240;BME280;61452;40.054;4.110;2023-04-09T05:07:26;102079.63;;;16.84;54.59
73240;BME280;61452;40.054;4.110;2023-04-09T05:12:30;102090.22;;;16.84;54.37
73240;BME280;61452;40.054;4.110;2023-04-09T05:17:34;102088.44;;;16.84;54.47
73240;BME280;61452;40.054;4.110;2023-04-09T05:22:36;102087.72;;;16.81;54.69
73240;BME280;61452;40.054;4.110;2023-04-09T05:27:39;102090.44;;;16.79;54.71
73240;BME280;61452;40.054;4.110;2023-04-09T05:32:43;102102.69;;;16.82;54.30
73240;BME280;61452;40.054;4.110;2023-04-09T05:37:46;102105.25;;;16.83;54.21
73240;BME280;61452;40.054;4.110;2023-04-09T05:42:48;102116.72;;;16.84;54.33
73240;BME280;61452;40.054;4.110;2023-04-09T05:48:05;102119.59;;;16.79;54.59
73240;BME280;61452;40.054;4.110;2023-04-09T05:53:07;102124.13;;;16.77;54.68
73240;BME280;61452;40.054;4.110;2023-04-09T05:58:14;102119.59;;;16.79;54.33
73240;BME280;61452;40.054;4.110;2023-04-09T06:03:21;102126.69;;;16.79;54.34
73240;BME280;61452;40.054;4.110;2023-04-09T06:08:24;102128.41;;;16.80;54.28
73240;BME280;61452;40.054;4.110;2023-04-09T06:13:26;102126.00;;;16.75;54.38
73240;BME280;61452;40.054;4.110;2023-04-09T06:18:28;102124.28;;;16.74;54.35
73240;BME280;61452;40.054;4.110;2023-04-09T06:23:31;102129.59;;;16.74;54.23
73240;BME280;61452;40.054;4.110;2023-04-09T06:28:34;102138.25;;;16.78;54.50
73240;BME280;61452;40.054;4.110;2023-04-09T06:33:37;102137.47;;;16.76;54.59
73240;BME280;61452;40.054;4.110;2023-04-09T06:38:39;102143.63;;;16.76;54.75
73240;BME280;61452;40.054;4.110;2023-04-09T06:43:41;102150.78;;;16.74;54.86
73240;BME280;61452;40.054;4.110;2023-04-09T06:48:43;102154.38;;;16.73;54.49
73240;BME280;61452;40.054;4.110;2023-04-09T06:53:45;102153.50;;;16.73;54.56
73240;BME280;61452;40.054;4.110;2023-04-09T06:58:49;102152.69;;;16.72;54.23
73240;BME280;61452;40.054;4.110;2023-04-09T07:03:51;102155.31;;;16.72;54.49
73240;BME280;61452;40.054;4.110;2023-04-09T07:08:53;102160.53;;;16.74;54.14
73240;BME280;61452;40.054;4.110;2023-04-09T07:13:58;102165.94;;;16.72;54.46
73240;BME280;61452;40.054;4.110;2023-04-09T07:19:00;102165.13;;;16.70;54.59
73240;BME280;61452;40.054;4.110;2023-04-09T07:24:02;102159.91;;;16.69;54.39
73240;BME280;61452;40.054;4.110;2023-04-09T07:29:04;102156.41;;;16.68;54.32
73240;BME280;61452;40.054;4.110;2023-04-09T07:34:07;102162.56;;;16.69;54.21
73240;BME280;61452;40.054;4.110;2023-04-09T07:39:09;102170.50;;;16.69;54.44
73240;BME280;61452;40.054;4.110;2023-04-09T07:44:11;102173.94;;;16.71;54.34
73240;BME280;61452;40.054;4.110;2023-04-09T07:49:14;102174.03;;;16.69;54.48
73240;BME280;61452;40.054;4.110;2023-04-09T07:54:17;102175.03;;;16.67;54.39
73240;BME280;61452;40.054;4.110;2023-04-09T07:59:20;102181.09;;;16.69;54.33
73240;BME280;61452;40.054;4.110;2023-04-09T08:04:23;102189.91;;;16.69;54.28
73240;BME280;61452;40.054;4.110;2023-04-09T08:09:25;102192.56;;;16.69;54.38
73240;BME280;61452;40.054;4.110;2023-04-09T08:14:27;102202.31;;;16.69;54.39
73240;BME280;61452;40.054;4.110;2023-04-09T08:19:29;102198.09;;;16.65;54.30
73240;BME280;61452;40.054;4.110;2023-04-09T08:24:32;102200.59;;;16.68;54.20
73240;BME280;61452;40.054;4.110;2023-04-09T08:29:35;102207.59;;;16.69;54.23
73240;BME280;61452;40.054;4.110;2023-04-09T08:34:37;102207.53;;;16.70;54.33
73240;BME280;61452;40.054;4.110;2023-04-09T08:39:39;102210.25;;;16.69;54.35
73240;BME280;61452;40.054;4.110;2023-04-09T08:44:42;102217.50;;;16.65;54.36
73240;BME280;61452;40.054;4.110;2023-04-09T08:49:44;102216.47;;;16.68;54.34
73240;BME280;61452;40.054;4.110;2023-04-09T08:54:49;102213.84;;;16.68;54.42
73240;BME280;61452;40.054;4.110;2023-04-09T08:59:52;102223.50;;;16.69;54.54
73240;BME280;61452;40.054;4.110;2023-04-09T09:04:54;102237.78;;;16.66;54.78
73240;BME280;61452;40.054;4.110;2023-04-09T09:10:01;102237.78;;;16.66;54.74
73240;BME280;61452;40.054;4.110;2023-04-09T09:15:28;102234.34;;;16.64;55.21
73240;BME280;61452;40.054;4.110;2023-04-09T09:20:30;102228.97;;;16.66;54.93
73240;BME280;61452;40.054;4.110;2023-04-09T09:25:40;102224.59;;;16.65;54.94
73240;BME280;61452;40.054;4.110;2023-04-09T09:30:42;102234.09;;;16.69;54.83
73240;BME280;61452;40.054;4.110;2023-04-09T09:35:48;102243.75;;;16.70;54.77
73240;BME280;61452;40.054;4.110;2023-04-09T09:40:51;102240.31;;;16.68;54.92
73240;BME280;61452;40.054;4.110;2023-04-09T09:45:53;102245.72;;;16.66;55.05
73240;BME280;61452;40.054;4.110;2023-04-09T09:50:57;102245.72;;;16.66;55.07
73240;BME280;61452;40.054;4.110;2023-04-09T09:55:59;102248.38;;;16.66;55.12
73240;BME280;61452;40.054;4.110;2023-04-09T10:01:07;102244.88;;;16.66;55.28
73240;BME280;61452;40.054;4.110;2023-04-09T10:06:12;102247.41;;;16.67;55.29
73240;BME280;61452;40.054;4.110;2023-04-09T10:11:14;102242.22;;;16.66;55.37
73240;BME280;61452;40.054;4.110;2023-04-09T10:16:17;102256.16;;;16.69;55.27
73240;BME280;61452;40.054;4.110;2023-04-09T10:26:43;102247.59;;;16.64;55.24
73240;BME280;61452;40.054;4.110;2023-04-09T10:32:06;102246.47;;;16.68;55.07
73240;BME280;61452;40.054;4.110;2023-04-09T10:37:20;102244.63;;;16.70;55.17
73240;BME280;61452;40.054;4.110;2023-04-09T10:42:28;102241.13;;;16.70;55.32
73240;BME280;61452;40.054;4.110;2023-04-09T10:47:32;102246.41;;;16.70;55.39
73240;BME280;61452;40.054;4.110;2023-04-09T10:52:39;102241.97;;;16.70;55.36
73240;BME280;61452;40.054;4.110;2023-04-09T10:57:42;102238.41;;;16.71;55.11
73240;BME280;61452;40.054;4.110;2023-04-09T11:03:35;102245.41;;;16.72;55.14
73240;BME280;61452;40.054;4.110;2023-04-09T11:08:18;102251.63;;;16.71;55.15
73240;BME280;61452;40.054;4.110;2023-04-09T11:13:23;102249.00;;;16.71;55.42
73240;BME280;61452;40.054;4.110;2023-04-09T11:18:27;102246.34;;;16.71;55.17
73240;BME280;61452;40.054;4.110;2023-04-09T11:23:30;102250.78;;;16.71;55.25
73240;BME280;61452;40.054;4.110;2023-04-09T11:28:33;102250.78;;;16.71;55.11
73240;BME280;61452;40.054;4.110;2023-04-09T11:33:35;102244.63;;;16.70;55.31
73240;BME280;61452;40.054;4.110;2023-04-09T11:38:37;102230.44;;;16.71;55.50
73240;BME280;61452;40.054;4.110;2023-04-09T11:43:40;102234.72;;;16.74;55.03
73240;BME280;61452;40.054;4.110;2023-04-09T11:48:42;102227.63;;;16.74;55.05
73240;BME280;61452;40.054;4.110;2023-04-09T11:53:44;102231.13;;;16.75;55.00
73240;BME280;61452;40.054;4.110;2023-04-09T11:58:49;102225.91;;;16.73;55.01
73240;BME280;61452;40.054;4.110;2023-04-09T12:03:54;102229.50;;;16.72;55.00
73240;BME280;61452;40.054;4.110;2023-04-09T12:08:58;102225.03;;;16.73;55.03
73240;BME280;61452;40.054;4.110;2023-04-09T12:14:01;102230.28;;;16.74;55.02
73240;BME280;61452;40.054;4.110;2023-04-09T12:19:07;102213.44;;;16.75;55.05
73240;BME280;61452;40.054;4.110;2023-04-09T12:24:09;102211.59;;;16.77;55.02
73240;BME280;61452;40.054;4.110;2023-04-09T12:29:16;102214.22;;;16.77;55.04
73240;BME280;61452;40.054;4.110;2023-04-09T12:34:19;102208.94;;;16.77;55.07
73240;BME280;61452;40.054;4.110;2023-04-09T12:39:21;102215.09;;;16.78;55.13
73240;BME280;61452;40.054;4.110;2023-04-09T12:44:23;102200.06;;;16.78;54.95
73240;BME280;61452;40.054;4.110;2023-04-09T12:49:25;102199.94;;;16.80;54.96
73240;BME280;61452;40.054;4.110;2023-04-09T12:54:27;102205.34;;;16.78;54.96
73240;BME280;61452;40.054;4.110;2023-04-09T12:59:29;102202.69;;;16.78;55.00
73240;BME280;61452;40.054;4.110;2023-04-09T13:04:31;102200.88;;;16.79;55.02
73240;BME280;61452;40.054;4.110;2023-04-09T13:09:34;102181.72;;;16.74;54.64
73240;BME280;61452;40.054;4.110;2023-04-09T13:14:40;102189.28;;;16.81;54.80
73240;BME280;61452;40.054;4.110;2023-04-09T13:19:42;102189.28;;;16.81;54.69
73240;BME280;61452;40.054;4.110;2023-04-09T13:24:44;102184.97;;;16.79;54.86
73240;BME280;61452;40.054;4.110;2023-04-09T13:29:46;102186.63;;;16.81;54.69
73240;BME280;61452;40.054;4.110;2023-04-09T13:34:49;102176.97;;;16.80;54.64
73240;BME280;61452;40.054;4.110;2023-04-09T13:39:51;102178.75;;;16.80;54.71
73240;BME280;61452;40.054;4.110;2023-04-09T13:44:54;102183.91;;;16.83;55.02
73240;BME280;61452;40.054;4.110;2023-04-09T13:49:56;102180.41;;;16.82;55.07
73240;BME280;61452;40.054;4.110;2023-04-09T13:54:58;102176.81;;;16.83;55.03
73240;BME280;61452;40.054;4.110;2023-04-09T14:00:00;102163.50;;;16.85;54.95
73240;BME280;61452;40.054;4.110;2023-04-09T14:05:05;102181.19;;;16.84;55.27
73240;BME280;61452;40.054;4.110;2023-04-09T14:10:07;102174.09;;;16.85;55.29
73240;BME280;61452;40.054;4.110;2023-04-09T14:15:10;102170.47;;;16.86;55.33
73240;BME280;61452;40.054;4.110;2023-04-09T14:20:12;102185.53;;;16.85;55.12
73240;BME280;61452;40.054;4.110;2023-04-09T14:25:14;102181.88;;;16.88;55.12
73240;BME280;61452;40.054;4.110;2023-04-09T14:30:16;102183.66;;;16.87;55.15
73240;BME280;61452;40.054;4.110;2023-04-09T14:35:19;102178.34;;;16.87;55.09
73240;BME280;61452;40.054;4.110;2023-04-09T14:40:21;102168.63;;;16.88;55.25
73240;BME280;61452;40.054;4.110;2023-04-09T14:45:23;102158.78;;;16.90;55.42
73240;BME280;61452;40.054;4.110;2023-04-09T14:50:25;102163.31;;;16.88;55.46
73240;BME280;61452;40.054;4.110;2023-04-09T14:55:28;102159.66;;;16.90;55.54
73240;BME280;61452;40.054;4.110;2023-04-09T15:00:30;102159.56;;;16.92;55.46
73240;BME280;61452;40.054;4.110;2023-04-09T15:05:32;102158.78;;;16.90;55.40
73240;BME280;61452;40.054;4.110;2023-04-09T15:10:37;102164.84;;;16.92;55.38
73240;BME280;61452;40.054;4.110;2023-04-09T15:15:40;102166.63;;;16.91;55.60
73240;BME280;61452;40.054;4.110;2023-04-09T15:20:44;102163.06;;;16.92;55.51
73240;BME280;61452;40.054;4.110;2023-04-09T15:25:46;102155.97;;;16.93;55.52
73240;BME280;61452;40.054;4.110;2023-04-09T15:30:48;102148.94;;;16.92;55.61
73240;BME280;61452;40.054;4.110;2023-04-09T15:35:50;102145.38;;;16.93;55.45
73240;BME280;61452;40.054;4.110;2023-04-09T15:40:54;102141.78;;;16.94;55.33
73240;BME280;61452;40.054;4.110;2023-04-09T15:45:56;102135.56;;;16.95;55.61
73240;BME280;61452;40.054;4.110;2023-04-09T15:50:59;102131.09;;;16.95;55.45
73240;BME280;61452;40.054;4.110;2023-04-09T15:56:02;102145.22;;;16.96;55.48
73240;BME280;61452;40.054;4.110;2023-04-09T16:01:07;102144.34;;;16.95;55.50
73240;BME280;61452;40.054;4.110;2023-04-09T16:06:10;102147.75;;;16.97;55.59
73240;BME280;61452;40.054;4.110;2023-04-09T16:11:15;102135.38;;;16.98;55.66
73240;BME280;61452;40.054;4.110;2023-04-09T16:16:18;102132.72;;;16.98;55.71
73240;BME280;61452;40.054;4.110;2023-04-09T16:21:21;102136.34;;;16.97;55.61
73240;BME280;61452;40.054;4.110;2023-04-09T16:26:23;102140.66;;;16.98;55.38
73240;BME280;61452;40.054;4.110;2023-04-09T16:31:25;102143.25;;;16.99;55.45
73240;BME280;61452;40.054;4.110;2023-04-09T16:36:28;102141.38;;;17.02;55.31
73240;BME280;61452;40.054;4.110;2023-04-09T16:41:32;102139.59;;;17.02;55.23
73240;BME280;61452;40.054;4.110;2023-04-09T16:46:37;102150.19;;;17.02;55.38
73240;BME280;61452;40.054;4.110;2023-04-09T16:51:39;102143.97;;;17.03;55.41
73240;BME280;61452;40.054;4.110;2023-04-09T16:56:41;102138.66;;;17.03;55.40
73240;BME280;61452;40.054;4.110;2023-04-09T17:01:43;102134.28;;;17.02;55.36
73240;BME280;61452;40.054;4.110;2023-04-09T17:06:45;102141.19;;;17.05;55.17
73240;BME280;61452;40.054;4.110;2023-04-09T17:11:47;102145.50;;;17.07;54.97
73240;BME280;61452;40.054;4.110;2023-04-09T17:16:49;102143.69;;;17.08;54.92
73240;BME280;61452;40.054;4.110;2023-04-09T17:21:54;102146.28;;;17.09;54.96
73240;BME280;61452;40.054;4.110;2023-04-09T17:26:56;102148.94;;;17.09;55.02
73240;BME280;61452;40.054;4.110;2023-04-09T17:31:58;102151.47;;;17.11;54.87
73240;BME280;61452;40.054;4.110;2023-04-09T17:37:00;102147.97;;;17.10;54.89
73240;BME280;61452;40.054;4.110;2023-04-09T17:42:03;102148.81;;;17.11;54.85
73240;BME280;61452;40.054;4.110;2023-04-09T17:47:07;102151.47;;;17.11;55.02
73240;BME280;61452;40.054;4.110;2023-04-09T17:52:09;102140.00;;;17.10;55.01
73240;BME280;61452;40.054;4.110;2023-04-09T17:57:11;102135.50;;;17.12;54.69
73240;BME280;61452;40.054;4.110;2023-04-09T18:02:13;102136.41;;;17.11;54.84
73240;BME280;61452;40.054;4.110;2023-04-09T18:07:16;102120.78;;;17.07;54.73
73240;BME280;61452;40.054;4.110;2023-04-09T18:12:18;102138.94;;;17.14;54.73
73240;BME280;61452;40.054;4.110;2023-04-09T18:17:20;102149.53;;;17.14;54.68
73240;BME280;61452;40.054;4.110;2023-04-09T18:22:23;102149.53;;;17.14;54.88
73240;BME280;61452;40.054;4.110;2023-04-09T18:27:25;102140.72;;;17.14;54.74
73240;BME280;61452;40.054;4.110;2023-04-09T18:32:28;102139.84;;;17.13;54.94
73240;BME280;61452;40.054;4.110;2023-04-09T18:37:30;102139.78;;;17.15;54.80
73240;BME280;61452;40.054;4.110;2023-04-09T18:42:34;102144.13;;;17.16;54.82
73240;BME280;61452;40.054;4.110;2023-04-09T18:47:36;102149.41;;;17.16;54.63
73240;BME280;61452;40.054;4.110;2023-04-09T18:52:39;102152.06;;;17.16;54.85
73240;BME280;61452;40.054;4.110;2023-04-09T18:57:41;102144.03;;;17.17;54.78
73240;BME280;61452;40.054;4.110;2023-04-09T19:02:44;102142.31;;;17.16;54.77
73240;BME280;61452;40.054;4.110;2023-04-09T19:07:47;102151.13;;;17.17;54.77
73240;BME280;61452;40.054;4.110;2023-04-09T19:12:49;102160.03;;;17.16;54.73
73240;BME280;61452;40.054;4.110;2023-04-09T19:17:55;102166.19;;;17.16;54.82
73240;BME280;61452;40.054;4.110;2023-04-09T19:22:57;102175.00;;;17.17;54.90
73240;BME280;61452;40.054;4.110;2023-04-09T19:28:00;102180.41;;;17.15;54.95
73240;BME280;61452;40.054;4.110;2023-04-09T19:33:02;102183.41;;;17.09;54.53
73240;BME280;61452;40.054;4.110;2023-04-09T19:38:05;102203.22;;;17.18;54.63
73240;BME280;61452;40.054;4.110;2023-04-09T19:43:08;102214.69;;;17.18;54.61
73240;BME280;61452;40.054;4.110;2023-04-09T19:48:10;102217.44;;;17.17;54.71
73240;BME280;61452;40.054;4.110;2023-04-09T19:53:13;102217.34;;;17.18;54.74
73240;BME280;61452;40.054;4.110;2023-04-09T19:58:15;102227.97;;;17.18;54.71
73240;BME280;61452;40.054;4.110;2023-04-09T20:03:17;102221.72;;;17.19;54.71
73240;BME280;61452;40.054;4.110;2023-04-09T20:08:20;102231.47;;;17.19;54.65
73240;BME280;61452;40.054;4.110;2023-04-09T20:13:22;102227.97;;;17.18;54.81
73240;BME280;61452;40.054;4.110;2023-04-09T20:18:24;102240.44;;;17.16;54.67
73240;BME280;61452;40.054;4.110;2023-04-09T20:23:26;102244.72;;;17.19;54.80
73240;BME280;61452;40.054;4.110;2023-04-09T20:28:28;102249.16;;;17.18;54.78
73240;BME280;61452;40.054;4.110;2023-04-09T20:33:30;102244.72;;;17.19;54.60
73240;BME280;61452;40.054;4.110;2023-04-09T20:38:33;102242.06;;;17.19;54.62
73240;BME280;61452;40.054;4.110;2023-04-09T20:43:35;102238.56;;;17.18;54.65
73240;BME280;61452;40.054;4.110;2023-04-09T20:48:39;102250.03;;;17.19;54.78
73240;BME280;61452;40.054;4.110;2023-04-09T20:53:42;102256.25;;;17.18;54.85
73240;BME280;61452;40.054;4.110;2023-04-09T20:58:44;102251.81;;;17.18;54.68
73240;BME280;61452;40.054;4.110;2023-04-09T21:03:46;102254.41;;;17.20;54.74
73240;BME280;61452;40.054;4.110;2023-04-09T21:08:49;102260.63;;;17.19;54.91
73240;BME280;61452;40.054;4.110;2023-04-09T21:13:52;102270.38;;;17.18;54.86
73240;BME280;61452;40.054;4.110;2023-04-09T21:18:56;102266.81;;;17.19;54.86
73240;BME280;61452;40.054;4.110;2023-04-09T21:23:58;102271.16;;;17.20;54.63
73240;BME280;61452;40.054;4.110;2023-04-09T21:29:00;102269.38;;;17.21;54.67
73240;BME280;61452;40.054;4.110;2023-04-09T21:34:03;102267.66;;;17.20;54.71
73240;BME280;61452;40.054;4.110;2023-04-09T21:39:06;102277.41;;;17.19;54.76
73240;BME280;61452;40.054;4.110;2023-04-09T21:44:08;102273.03;;;17.18;54.76
73240;BME280;61452;40.054;4.110;2023-04-09T21:49:10;102274.75;;;17.19;54.89
73240;BME280;61452;40.054;4.110;2023-04-09T21:54:13;102278.25;;;17.20;54.74
73240;BME280;61452;40.054;4.110;2023-04-09T21:59:15;102273.44;;;17.11;54.89
73240;BME280;61452;40.054;4.110;2023-04-09T22:04:17;102275.69;;;17.18;54.88
73240;BME280;61452;40.054;4.110;2023-04-09T22:09:19;102289.88;;;17.17;54.81
73240;BME280;61452;40.054;4.110;2023-04-09T22:14:21;102293.47;;;17.16;54.81
73240;BME280;61452;40.054;4.110;2023-04-09T22:19:24;102275.69;;;17.18;54.89
73240;BME280;61452;40.054;4.110;2023-04-09T22:24:27;102283.66;;;17.18;54.63
73240;BME280;61452;40.054;4.110;2023-04-09T22:29:30;102281.06;;;17.17;54.68
73240;BME280;61452;40.054;4.110;2023-04-09T22:34:33;102294.31;;;17.17;54.81
73240;BME280;61452;40.054;4.110;2023-04-09T22:39:35;102293.47;;;17.16;54.92
73240;BME280;61452;40.054;4.110;2023-04-09T22:44:38;102279.19;;;17.19;54.77
73240;BME280;61452;40.054;4.110;2023-04-09T22:49:40;102269.44;;;17.19;54.57
73240;BME280;61452;40.054;4.110;2023-04-09T22:54:42;102276.53;;;17.19;54.54
73240;BME280;61452;40.054;4.110;2023-04-09T22:59:44;102277.56;;;17.16;54.80
73240;BME280;61452;40.054;4.110;2023-04-09T23:04:47;102281.91;;;17.17;54.83
73240;BME280;61452;40.054;4.110;2023-04-09T23:09:49;102277.47;;;17.18;54.61
73240;BME280;61452;40.054;4.110;2023-04-09T23:14:52;102275.69;;;17.18;54.81
73240;BME280;61452;40.054;4.110;2023-04-09T23:19:54;102276.53;;;17.19;54.61
73240;BME280;61452;40.054;4.110;2023-04-09T23:24:56;102276.78;;;17.14;54.87
73240;BME280;61452;40.054;4.110;2023-04-09T23:29:58;102281.91;;;17.17;54.91
73240;BME280;61452;40.054;4.110;2023-04-09T23:35:01;102275.69;;;17.18;54.80
73240;BME280;61452;40.054;4.110;2023-04-09T23:40:03;102277.47;;;17.18;54.93
73240;BME280;61452;40.054;4.110;2023-04-09T23:45:06;102259.09;;;17.15;54.76
73240;BME280;61452;40.054;4.110;2023-04-09T23:50:08;102260.97;;;17.13;55.04
73240;BME280;61452;40.054;4.110;2023-04-09T23:55:12;102258.31;;;17.13;55.30
